AirNav   Phillips 66 Aviation Fuel
 
 302 users online  

MU66 Winfield Manor Heliport
Winfield, Missouri, USA

GOING TO WINFIELD?


FAA INFORMATION EFFECTIVE 23 MAY 2019

Location

FAA Identifier: MU66
Lat/Long: 39-01-47.4300N / 090-49-23.7500W
39-01.790500N / 090-49.395833W
39.0298417 / -90.8232639
(estimated)
Elevation: 732 ft. / 223 m (estimated)
Variation: 01E (2000)
From city: 3 miles SE of WINFIELD, MO
Time zone: UTC -5 (UTC -6 during Standard Time)
Zip code: 63389

Heliport Operations

Heliport use: Private use. Permission required prior to landing
Activation date: 10/1986
Control tower: no
ARTCC: KANSAS CITY CENTER
FSS: SAINT LOUIS FLIGHT SERVICE STATION
NOTAMs facility: FDC (NOTAM-D service not available)
Attendance: UNATNDD
Wind indicator: yes
Segmented circle: no
Lights: FOR FLOOD LGTS CALL 314-553-2225.
Beacon: white-green-yellow (heliport)
FOR ROTG BCN CALL 314-731-4517.

Heliport Communications

WX ASOS at SET (19 nm E): 118.075 (636-250-4590)

Nearby radio navigation aids

VOR radial/distance  VOR name  Freq  Var
STLr302/18.9ST LOUIS VORTAC117.4001E
FTZr014/21.3FORISTELL VORTAC110.8005E
CSXr308/27.2CARDINAL VOR/DME116.4500E

 
NDB name  Hdg/Dist  Freq  Var  ID
CIVIC MEMORIAL284/36.726301WCVM -.-. ...- --

Heliport Services

Runway Information

Helipad H1

Dimensions: 50 x 50 ft. / 15 x 15 m
Surface: concrete
Runway edge lights: FLD
Latitude: 39-01.790500N
Longitude: 090-49.395833W
Elevation: 732.0 ft.
Traffic pattern: leftleft

Heliport Ownership and Management from official FAA records

Ownership: Privately-owned
Owner: EMERSON ELECTRIC CO.
8000 W. FLORISSANT
ST LOUIS, MO 63136
Phone (314) 553-2225
Manager: MOLLY LINDSAY
RR 1, BOX 128
WINFIELD, MO 63389
Phone (314) 553-3900

Additional Remarks

A52-H1 TREES 80' WEST AND WIRES 400' NORTH.
FOR CD CTC ST LOUIS APCH AT 314-890-1018.

Instrument Procedures

There are no published instrument procedures at MU66.

Some nearby airports with instrument procedures:

KSET - St Charles County Smartt Airport (19 nm E)
1H0 - Creve Coeur Airport (23 nm SE)
KSUS - Spirit of St Louis Airport (23 nm S)
KSTL - St Louis Lambert International Airport (27 nm SE)
H19 - Bowling Green Municipal Airport (27 nm NW)
 
Loc | Ops | Rwys | IFR | FBO | Links
Com | Nav | Svcs | Stats | Notes

Kansas City Aviation Department
 
Area around MU66 (Winfield Manor Heliport)
 
Road maps at: MapQuest Bing Google
 
Aerial photo
No photo
 
Sectional chart

 
Airport distance calculator
Flying to Winfield Manor Heliport? Find the distance to fly.

From to MU66

Sunrise and sunset
Times for 19-Jun-2019
 Local
(UTC-5)
 Zulu
(UTC)
Morning civil twilight05:0610:06
Sunrise05:3810:38
Sunset20:3101:31
Evening civil twilight21:0302:03

Current date and time
Zulu (UTC)  19-Jun-2019 07:59:13
Local (UTC-5)  19-Jun-2019 02:59:13
 
METAR
KSET 
19nm E 
190754Z AUTO A2977 RMK AO2 SLPNO PWINO $
KSUS 
24nm S 
190754Z AUTO 00000KT 9SM FEW047 FEW060 SCT095 22/21 A2976 RMK AO2 SLP071 T02220206
KSTL 
27nm SE 
190751Z 09003KT 10SM BKN060 22/19 A2979 RMK AO2 SLP075 T02220194
KFYG 
28nm S 
190735Z AUTO 13008G16KT 7SM FEW025 SCT038 BKN070 22/22 A2976 RMK AO2
KPPQ 
36nm N 
190735Z AUTO 00000KT 10SM OVC050 20/19 A2981 RMK AO2 T01980189
KALN 
38nm E 
190735Z AUTO 00000KT 5SM BR SCT070 BKN100 20/20 A2980 RMK AO2 LTG DSNT S T02040204
TAF
KSUS 
24nm S 
190520Z 1906/2006 VRB04KT P6SM SCT060 BKN250 FM190900 VRB04KT P6SM VCSH BKN050 FM191500 22007KT P6SM VCTS BKN040CB TEMPO 1922/1924 3SM TSRA OVC030CB FM200200 26006KT P6SM BKN040
KSTL 
27nm SE 
190520Z 1906/2012 VRB04KT P6SM SCT060 BKN250 FM190900 VRB04KT P6SM VCSH BKN050 FM191500 22007KT P6SM VCTS BKN040CB TEMPO 1922/1924 3SM TSRA OVC030CB FM200200 26006KT P6SM BKN040 FM200900 31006KT P6SM BKN020
NOTAMs
Click for the latest NOTAMs
NOTAMs are issued by the DoD/FAA and will open in a separate window not controlled by AirNav.

 

 
 

Would you like to see your business listed on this page?

 If your business provides an interesting product or service to pilots, flight crews, aircraft, or users of the Winfield Manor Heliport, you should consider listing it here.  To start the listing process, click on the button below
 
Add a business
 

Other Pages about Winfield Manor Heliport

Update a link
 
Copyright © AirNav, LLC. All rights reserved. Privacy Policy  Contact